createdAt,value
2019-03-19T00:01:02.895Z,3.70
2019-03-19T00:03:30.350Z,3.60
2019-03-19T00:05:57.789Z,3.60
2019-03-19T00:08:25.174Z,3.60
2019-03-19T00:10:52.624Z,3.60
2019-03-19T00:13:19.951Z,3.50
2019-03-19T00:15:47.359Z,3.50
2019-03-19T00:18:14.798Z,3.50
2019-03-19T00:20:42.227Z,3.50
2019-03-19T00:23:09.602Z,3.50
2019-03-19T00:25:36.914Z,3.50
2019-03-19T00:28:04.437Z,3.50
2019-03-19T00:30:31.897Z,3.40
2019-03-19T00:32:59.275Z,3.40
2019-03-19T00:35:26.713Z,3.30
2019-03-19T00:37:54.194Z,3.30
2019-03-19T00:40:21.582Z,3.30
2019-03-19T00:42:49.073Z,3.30
2019-03-19T00:45:16.561Z,3.30
2019-03-19T00:47:44.041Z,3.30
2019-03-19T00:50:11.509Z,3.30
2019-03-19T00:52:39.029Z,3.30
2019-03-19T00:55:06.561Z,3.30
2019-03-19T00:57:33.907Z,3.30
2019-03-19T01:00:01.385Z,3.30
2019-03-19T01:02:28.829Z,3.30
2019-03-19T01:04:56.192Z,3.40
2019-03-19T01:07:23.665Z,3.30
2019-03-19T01:09:52.957Z,3.30
2019-03-19T01:12:20.368Z,3.30
2019-03-19T01:14:47.752Z,3.30
2019-03-19T01:17:15.209Z,3.20
2019-03-19T01:19:42.562Z,3.20
2019-03-19T01:22:09.955Z,3.10
2019-03-19T01:24:37.287Z,3.00
2019-03-19T01:27:04.757Z,3.00
2019-03-19T01:29:32.211Z,3.00
2019-03-19T01:31:59.567Z,3.00
2019-03-19T01:34:26.891Z,3.00
2019-03-19T01:36:54.275Z,2.90
2019-03-19T01:39:21.629Z,3.00
2019-03-19T01:41:48.965Z,3.00
2019-03-19T01:44:16.419Z,3.00
2019-03-19T01:46:43.785Z,3.00
2019-03-19T01:49:11.231Z,3.00
2019-03-19T01:51:38.705Z,3.00
2019-03-19T01:54:06.155Z,3.00
2019-03-19T01:56:33.657Z,3.00
2019-03-19T01:59:01.007Z,3.00
2019-03-19T02:01:28.478Z,2.90
2019-03-19T02:03:55.904Z,2.90
2019-03-19T02:06:23.479Z,2.80
2019-03-19T02:08:50.961Z,2.80
2019-03-19T02:11:18.346Z,2.80
2019-03-19T02:13:45.779Z,2.90
2019-03-19T02:16:13.131Z,2.90
2019-03-19T02:18:40.512Z,2.90
2019-03-19T02:21:07.971Z,2.90
2019-03-19T02:23:35.376Z,2.80
2019-03-19T02:26:02.863Z,2.80
2019-03-19T02:28:30.226Z,2.80
2019-03-19T02:30:57.597Z,2.80
2019-03-19T02:33:25.023Z,2.90
2019-03-19T02:35:52.507Z,2.90
2019-03-19T02:38:19.951Z,2.80
2019-03-19T02:40:47.402Z,2.70
2019-03-19T02:43:14.815Z,2.70
2019-03-19T02:45:42.257Z,2.70
2019-03-19T02:48:09.615Z,2.70
2019-03-19T02:50:37.801Z,2.70
2019-03-19T02:53:05.130Z,2.70
2019-03-19T02:55:32.574Z,2.60
2019-03-19T02:58:00.046Z,2.70
2019-03-19T03:00:27.520Z,2.70
2019-03-19T03:02:54.913Z,2.60
2019-03-19T03:05:22.341Z,2.60
2019-03-19T03:07:49.798Z,2.60
2019-03-19T03:10:17.246Z,2.60
2019-03-19T03:12:44.826Z,2.50
2019-03-19T03:15:12.385Z,2.60
2019-03-19T03:17:39.927Z,2.60
2019-03-19T03:20:07.500Z,2.60
2019-03-19T03:22:34.954Z,2.60
2019-03-19T03:25:02.440Z,2.60
2019-03-19T03:27:29.893Z,2.50
2019-03-19T03:29:57.315Z,2.50
2019-03-19T03:32:24.993Z,2.50
2019-03-19T03:34:52.431Z,2.50
2019-03-19T03:37:20.993Z,2.50
2019-03-19T03:39:48.430Z,2.50
2019-03-19T03:42:15.892Z,2.50
2019-03-19T03:44:43.334Z,2.40
2019-03-19T03:47:10.775Z,2.50
2019-03-19T03:49:38.116Z,2.50
2019-03-19T03:52:05.575Z,2.50
2019-03-19T03:54:33.001Z,2.50
2019-03-19T03:57:02.288Z,2.50
2019-03-19T03:59:29.725Z,2.60
2019-03-19T04:01:57.071Z,2.60
2019-03-19T04:04:24.590Z,2.50
2019-03-19T04:06:52.061Z,2.50
2019-03-19T04:09:19.561Z,2.50
2019-03-19T04:11:46.917Z,2.50
2019-03-19T04:14:14.281Z,2.50
2019-03-19T04:16:41.773Z,2.50
2019-03-19T04:19:09.220Z,2.50
2019-03-19T04:21:36.673Z,2.60
2019-03-19T04:24:04.097Z,2.60
2019-03-19T04:26:31.589Z,2.50
2019-03-19T04:28:59.025Z,2.50
2019-03-19T04:31:26.449Z,2.50
2019-03-19T04:33:54.069Z,2.50
2019-03-19T04:36:21.525Z,2.50
2019-03-19T04:38:49.233Z,2.50
2019-03-19T04:41:16.693Z,2.50
2019-03-19T04:43:44.167Z,2.40
2019-03-19T04:46:11.767Z,2.50
2019-03-19T04:48:39.239Z,2.40
2019-03-19T04:51:06.731Z,2.40
2019-03-19T04:53:34.184Z,2.30
2019-03-19T04:56:01.559Z,2.30
2019-03-19T04:58:28.941Z,2.30
2019-03-19T05:00:56.283Z,2.20
2019-03-19T05:03:23.781Z,2.30
2019-03-19T05:05:51.220Z,2.30
2019-03-19T05:08:18.654Z,2.30
2019-03-19T05:10:46.133Z,2.30
2019-03-19T05:13:13.494Z,2.30
2019-03-19T05:15:40.955Z,2.20
2019-03-19T05:18:08.708Z,2.20
2019-03-19T05:20:36.154Z,2.20
2019-03-19T05:23:03.678Z,2.20
2019-03-19T05:25:31.127Z,2.20
2019-03-19T05:27:59.956Z,2.20
2019-03-19T05:30:27.367Z,2.20
2019-03-19T05:32:54.715Z,2.10
2019-03-19T05:35:22.156Z,2.10
2019-03-19T05:37:49.650Z,2.00
2019-03-19T05:40:17.491Z,2.10
2019-03-19T05:42:44.875Z,2.00
2019-03-19T05:45:12.938Z,2.10
2019-03-19T05:47:40.918Z,2.10
2019-03-19T05:50:09.275Z,2.10
2019-03-19T05:52:36.641Z,2.10
2019-03-19T05:55:04.567Z,2.10
2019-03-19T05:57:32.357Z,2.10
2019-03-19T05:59:59.823Z,2.10
2019-03-19T06:02:27.327Z,2.20
2019-03-19T06:04:54.799Z,2.20
2019-03-19T06:07:22.296Z,2.20
2019-03-19T06:09:50.859Z,2.30
2019-03-19T06:12:18.315Z,2.20
2019-03-19T06:14:45.656Z,2.30
2019-03-19T06:17:13.076Z,2.30
2019-03-19T06:19:40.812Z,2.20
2019-03-19T06:22:08.246Z,2.30
2019-03-19T06:24:35.751Z,2.30
2019-03-19T06:27:03.225Z,2.40
2019-03-19T06:29:30.687Z,2.40
2019-03-19T06:31:58.148Z,2.50
2019-03-19T06:34:25.658Z,2.50
2019-03-19T06:36:53.132Z,2.60
2019-03-19T06:39:20.494Z,2.60
2019-03-19T06:41:47.978Z,2.60
2019-03-19T06:44:15.432Z,2.70
2019-03-19T06:46:43.025Z,2.70
2019-03-19T06:49:10.523Z,2.80
2019-03-19T06:51:38.061Z,2.90
2019-03-19T06:54:05.559Z,3.00
2019-03-19T06:56:33.006Z,3.00
2019-03-19T06:59:00.481Z,3.10
2019-03-19T07:01:27.845Z,3.20
2019-03-19T07:03:55.378Z,3.30
2019-03-19T07:06:24.826Z,3.40
2019-03-19T07:09:04.404Z,3.50
2019-03-19T07:11:33.244Z,3.60
2019-03-19T07:14:00.812Z,3.70
2019-03-19T07:16:28.278Z,3.80
2019-03-19T07:18:55.840Z,3.80
2019-03-19T07:21:23.368Z,3.90
2019-03-19T07:23:50.813Z,4.00
2019-03-19T07:26:19.391Z,4.10
2019-03-19T07:28:46.846Z,4.10
2019-03-19T07:31:14.196Z,4.20
2019-03-19T07:33:43.946Z,4.30
2019-03-19T07:36:11.585Z,4.40
2019-03-19T07:38:39.062Z,4.50
2019-03-19T07:41:06.568Z,4.60
2019-03-19T07:43:34.019Z,4.70
2019-03-19T07:46:01.480Z,4.80
2019-03-19T07:48:28.843Z,4.80
2019-03-19T07:50:56.268Z,5.00
2019-03-19T07:53:23.726Z,5.10
2019-03-19T07:55:53.383Z,5.20
2019-03-19T07:58:31.372Z,5.30
2019-03-19T08:00:49.638Z,5.30
2019-03-19T08:03:16.965Z,5.50
2019-03-19T08:05:44.311Z,5.50
2019-03-19T08:08:11.783Z,5.60
2019-03-19T08:10:39.339Z,5.70
2019-03-19T08:13:06.790Z,5.80
2019-03-19T08:15:34.288Z,5.90
2019-03-19T08:18:01.788Z,6.00
2019-03-19T08:20:29.259Z,6.10
2019-03-19T08:22:57.594Z,6.20
2019-03-19T08:25:24.958Z,6.40
2019-03-19T08:27:52.446Z,6.50
2019-03-19T08:30:19.922Z,6.60
2019-03-19T08:32:47.389Z,6.70
2019-03-19T08:35:15.852Z,6.80
2019-03-19T08:37:43.457Z,7.00
2019-03-19T08:40:19.989Z,7.00
2019-03-19T08:42:47.833Z,7.10
2019-03-19T08:45:16.128Z,7.30
2019-03-19T08:47:43.565Z,7.40
2019-03-19T08:50:13.278Z,7.50
2019-03-19T08:52:40.737Z,7.60
2019-03-19T08:55:08.756Z,7.70
2019-03-19T08:57:36.993Z,7.70
2019-03-19T09:00:06.223Z,7.90
2019-03-19T09:02:35.130Z,8.00
2019-03-19T09:05:03.157Z,8.10
2019-03-19T09:07:31.007Z,8.20
2019-03-19T09:09:58.384Z,8.30
2019-03-19T09:12:25.897Z,8.40
2019-03-19T09:14:57.421Z,8.50
2019-03-19T09:19:57.815Z,8.90
2019-03-19T09:22:29.547Z,9.00
2019-03-19T09:24:54.683Z,9.10
2019-03-19T09:27:22.466Z,9.20
2019-03-19T09:29:49.811Z,9.30
2019-03-19T09:32:17.267Z,9.50
2019-03-19T09:34:45.002Z,9.70
2019-03-19T09:37:16.142Z,9.80
2019-03-19T09:39:43.596Z,10.10
2019-03-19T09:42:11.751Z,10.20
2019-03-19T09:44:40.094Z,10.40
2019-03-19T09:47:07.511Z,10.50
2019-03-19T09:49:35.059Z,10.60
2019-03-19T09:52:04.225Z,10.80
2019-03-19T09:54:32.994Z,11.00
2019-03-19T09:57:00.554Z,11.10
2019-03-19T09:59:28.146Z,11.40
2019-03-19T10:01:55.593Z,11.50
2019-03-19T10:04:23.027Z,11.60
2019-03-19T10:06:50.694Z,11.70
2019-03-19T10:09:20.461Z,11.80
2019-03-19T10:11:47.976Z,11.90
2019-03-19T10:14:16.276Z,12.00
2019-03-19T10:16:45.420Z,12.10
2019-03-19T10:27:28.988Z,12.90
2019-03-19T10:29:56.456Z,13.10
2019-03-19T10:32:23.952Z,13.10
2019-03-19T10:34:51.344Z,12.90
2019-03-19T10:37:18.757Z,12.90
2019-03-19T10:39:46.262Z,12.80
2019-03-19T10:42:13.780Z,13.00
2019-03-19T10:44:41.438Z,12.70
2019-03-19T10:47:08.894Z,12.50
2019-03-19T10:49:36.280Z,12.60
2019-03-19T10:52:03.934Z,12.40
2019-03-19T10:54:31.326Z,12.40
2019-03-19T10:56:58.810Z,12.40
2019-03-19T10:59:26.307Z,12.40
2019-03-19T11:01:53.795Z,12.50
2019-03-19T11:04:21.316Z,12.80
2019-03-19T11:06:48.784Z,13.20
2019-03-19T11:09:16.300Z,13.40
2019-03-19T11:11:43.778Z,13.70
2019-03-19T11:14:11.238Z,14.00
2019-03-19T11:16:38.734Z,14.00
2019-03-19T11:19:06.237Z,14.30
2019-03-19T11:21:33.727Z,14.50
2019-03-19T11:24:01.182Z,14.90
2019-03-19T11:26:28.720Z,14.90
2019-03-19T11:28:57.074Z,14.60
2019-03-19T11:31:24.592Z,14.80
2019-03-19T11:33:52.063Z,15.00
2019-03-19T11:36:19.532Z,14.90
2019-03-19T11:38:47.066Z,14.40
2019-03-19T11:41:14.508Z,14.20
2019-03-19T11:43:41.872Z,14.00
2019-03-19T11:46:09.265Z,13.60
2019-03-19T11:48:36.776Z,13.40
2019-03-19T11:51:04.256Z,13.20
2019-03-19T11:53:31.610Z,13.00
2019-03-19T11:55:58.968Z,12.80
2019-03-19T11:58:26.348Z,12.60
2019-03-19T12:00:56.597Z,12.50
2019-03-19T12:03:24.064Z,12.40
2019-03-19T12:05:51.555Z,12.40
2019-03-19T12:08:19.030Z,12.50
2019-03-19T12:10:46.501Z,12.70
2019-03-19T12:13:13.892Z,12.80
2019-03-19T12:15:41.393Z,13.30
2019-03-19T12:18:08.836Z,14.30
2019-03-19T12:20:36.296Z,15.10
2019-03-19T12:23:04.135Z,15.50
2019-03-19T12:25:31.642Z,14.90
2019-03-19T12:27:59.061Z,14.80
2019-03-19T12:30:26.711Z,14.60
2019-03-19T12:32:54.721Z,14.40
2019-03-19T12:35:22.211Z,14.10
2019-03-19T12:37:49.662Z,13.90
2019-03-19T12:40:17.235Z,13.80
2019-03-19T12:42:44.599Z,13.60
2019-03-19T12:45:13.113Z,13.40
2019-03-19T12:47:40.572Z,13.40
2019-03-19T12:50:09.817Z,13.30
2019-03-19T12:52:37.228Z,13.20
2019-03-19T12:55:23.762Z,13.10
2019-03-19T12:57:51.209Z,13.00
2019-03-19T13:00:19.502Z,12.90
2019-03-19T13:02:46.898Z,12.80
2019-03-19T13:05:14.377Z,12.70
2019-03-19T13:07:41.843Z,12.60
2019-03-19T13:10:11.269Z,12.40
2019-03-19T13:12:38.672Z,12.40
2019-03-19T13:15:06.393Z,12.20
2019-03-19T13:17:33.773Z,12.10
2019-03-19T13:20:01.262Z,12.00
2019-03-19T13:22:28.780Z,12.00
2019-03-19T13:24:56.252Z,12.00
2019-03-19T13:27:23.773Z,12.00
2019-03-19T13:29:51.252Z,12.00
2019-03-19T13:32:19.009Z,12.00
2019-03-19T13:34:46.519Z,12.00
2019-03-19T13:37:13.974Z,12.00
2019-03-19T13:39:41.473Z,11.90
2019-03-19T13:42:08.918Z,12.00
2019-03-19T13:44:36.401Z,12.00
2019-03-19T13:47:03.923Z,12.00
2019-03-19T13:49:31.357Z,12.00
2019-03-19T13:51:58.806Z,12.00
2019-03-19T13:54:26.328Z,12.00
2019-03-19T13:56:53.813Z,12.00
2019-03-19T13:59:21.268Z,11.90
2019-03-19T14:01:48.727Z,11.90
2019-03-19T14:04:16.350Z,11.80
2019-03-19T14:06:43.856Z,11.80
2019-03-19T14:09:11.316Z,11.90
2019-03-19T14:11:40.456Z,11.90
2019-03-19T14:14:07.912Z,11.80
2019-03-19T14:16:36.406Z,11.80
2019-03-19T14:19:03.996Z,11.80
2019-03-19T14:21:31.366Z,11.80
2019-03-19T14:23:58.880Z,11.80
2019-03-19T14:26:26.296Z,11.70
2019-03-19T14:28:53.794Z,11.80
2019-03-19T14:31:21.212Z,11.80
2019-03-19T14:33:48.672Z,11.70
2019-03-19T14:36:16.045Z,11.70
2019-03-19T14:38:47.319Z,11.80
2019-03-19T14:41:12.863Z,11.80
2019-03-19T14:43:40.365Z,11.90
2019-03-19T14:46:07.851Z,11.90
2019-03-19T14:48:35.293Z,11.90
2019-03-19T14:51:02.645Z,11.90
2019-03-19T14:53:30.398Z,11.90
2019-03-19T14:55:57.866Z,11.90
2019-03-19T14:58:25.320Z,12.00
2019-03-19T15:00:52.808Z,12.00
2019-03-19T15:03:20.268Z,11.90
2019-03-19T15:08:53.030Z,11.90
2019-03-19T15:11:20.456Z,11.90
2019-03-19T15:13:47.918Z,11.80
2019-03-19T15:16:15.494Z,11.80
2019-03-19T15:18:42.885Z,11.80
2019-03-19T15:21:10.344Z,11.80
2019-03-19T15:23:37.855Z,11.80
2019-03-19T15:29:00.697Z,11.70
2019-03-19T15:31:30.033Z,11.70
2019-03-19T15:33:57.393Z,11.70
2019-03-19T15:36:25.154Z,11.70
2019-03-19T15:38:52.631Z,11.70
2019-03-19T15:41:20.133Z,11.60
2019-03-19T15:43:47.695Z,11.50
2019-03-19T15:46:15.174Z,11.50
2019-03-19T15:48:42.630Z,11.40
2019-03-19T15:51:10.016Z,11.40
2019-03-19T15:53:37.348Z,11.40
2019-03-19T15:56:04.855Z,11.40
2019-03-19T15:58:32.398Z,11.30
2019-03-19T16:00:59.997Z,11.30
2019-03-19T16:03:27.513Z,11.30
2019-03-19T16:05:54.908Z,11.30
2019-03-19T16:08:22.397Z,11.20
2019-03-19T16:10:49.871Z,11.10
2019-03-19T16:13:19.845Z,11.10
2019-03-19T16:15:47.360Z,11.10
2019-03-19T16:18:14.817Z,11.10
2019-03-19T16:20:42.176Z,11.10
2019-03-19T16:23:12.558Z,11.10
2019-03-19T16:25:40.055Z,11.00
2019-03-19T16:28:07.551Z,11.00
2019-03-19T16:30:35.019Z,11.00
2019-03-19T16:33:02.497Z,11.00
2019-03-19T16:35:29.989Z,11.00
2019-03-19T16:37:57.470Z,11.00
2019-03-19T16:40:25.692Z,11.00
2019-03-19T16:42:53.181Z,10.90
2019-03-19T16:45:20.727Z,10.90
2019-03-19T16:47:48.412Z,10.90
2019-03-19T16:50:15.950Z,10.90
2019-03-19T16:52:43.397Z,10.90
2019-03-19T16:55:11.403Z,11.00
2019-03-19T16:57:38.877Z,11.00
2019-03-19T17:00:09.125Z,11.00
2019-03-19T17:02:36.621Z,10.90
2019-03-19T17:05:06.114Z,10.90
2019-03-19T17:07:36.648Z,10.90
2019-03-19T17:10:09.327Z,10.90
2019-03-19T17:12:37.110Z,10.90
2019-03-19T17:15:04.828Z,10.90
2019-03-19T17:17:32.601Z,10.90
2019-03-19T17:20:00.031Z,10.90
2019-03-19T17:22:27.417Z,10.90
2019-03-19T17:24:54.954Z,11.00
2019-03-19T17:27:27.447Z,10.90
2019-03-19T17:29:52.510Z,10.90
2019-03-19T17:32:20.137Z,10.90
2019-03-19T17:34:47.642Z,10.90
2019-03-19T17:37:15.124Z,10.90
2019-03-19T17:39:42.592Z,10.80
2019-03-19T17:42:10.053Z,10.80
2019-03-19T17:44:37.581Z,10.80
2019-03-19T17:47:05.032Z,10.80
2019-03-19T17:49:32.509Z,10.70
2019-03-19T17:51:59.942Z,10.70
2019-03-19T17:54:27.508Z,10.60
2019-03-19T17:56:54.924Z,10.60
2019-03-19T17:59:22.304Z,10.60
2019-03-19T18:01:49.922Z,10.50
2019-03-19T18:04:17.425Z,10.50
2019-03-19T18:06:44.882Z,10.50
2019-03-19T18:09:12.328Z,10.40
2019-03-19T18:11:39.907Z,10.40
2019-03-19T18:14:07.317Z,10.40
2019-03-19T18:16:34.855Z,10.30
2019-03-19T18:19:02.422Z,10.30
2019-03-19T18:21:29.900Z,10.30
2019-03-19T18:23:57.428Z,10.20
2019-03-19T18:26:24.934Z,10.20
2019-03-19T18:28:53.810Z,10.20
2019-03-19T18:31:21.215Z,10.20
2019-03-19T18:33:49.082Z,10.20
2019-03-19T18:36:16.585Z,10.20
2019-03-19T18:38:44.040Z,10.20
2019-03-19T18:41:11.697Z,10.10
2019-03-19T18:43:39.173Z,10.10
2019-03-19T18:46:06.661Z,10.10
2019-03-19T18:48:34.128Z,10.10
2019-03-19T18:51:03.536Z,10.10
2019-03-19T18:53:30.977Z,10.10
2019-03-19T18:55:58.493Z,10.10
2019-03-19T18:58:25.958Z,10.10
2019-03-19T19:00:53.420Z,10.10
2019-03-19T19:03:20.960Z,10.10
2019-03-19T19:05:48.564Z,10.10
2019-03-19T19:08:15.959Z,10.10
2019-03-19T19:10:43.416Z,10.10
2019-03-19T19:13:11.042Z,10.10
2019-03-19T19:15:38.474Z,10.10
2019-03-19T19:18:05.969Z,10.10
2019-03-19T19:20:33.474Z,10.10
2019-03-19T19:23:02.894Z,10.10
2019-03-19T19:25:30.214Z,10.10
2019-03-19T19:28:02.246Z,10.00
2019-03-19T19:30:29.733Z,10.00
2019-03-19T19:33:02.144Z,10.00
2019-03-19T19:35:27.696Z,10.00
2019-03-19T19:37:57.308Z,10.00
2019-03-19T19:40:25.013Z,10.00
2019-03-19T19:42:52.412Z,10.00
2019-03-19T19:45:19.993Z,10.00
2019-03-19T19:47:47.708Z,9.90
2019-03-19T19:50:15.204Z,9.90
2019-03-19T19:52:42.694Z,9.90
2019-03-19T19:55:10.327Z,9.80
2019-03-19T19:57:37.900Z,9.80
2019-03-19T20:02:57.060Z,9.80
2019-03-19T20:05:24.710Z,9.70
2019-03-19T20:07:52.366Z,9.70
2019-03-19T20:10:19.926Z,9.60
2019-03-19T20:12:49.723Z,9.70
2019-03-19T20:15:17.187Z,9.70
2019-03-19T20:17:44.941Z,9.60
2019-03-19T20:20:14.113Z,9.60
2019-03-19T20:22:41.591Z,9.60
2019-03-19T20:25:10.421Z,9.70
2019-03-19T20:27:37.883Z,9.60
2019-03-19T20:30:07.162Z,9.60
2019-03-19T20:32:34.656Z,9.50
2019-03-19T20:35:02.675Z,9.50
2019-03-19T20:37:38.069Z,9.50
2019-03-19T20:40:07.514Z,9.50
2019-03-19T20:42:34.977Z,9.40
2019-03-19T20:45:02.462Z,9.40
2019-03-19T20:47:36.429Z,9.40
2019-03-19T20:50:05.073Z,9.50
2019-03-19T20:52:32.570Z,9.50
2019-03-19T20:55:02.286Z,9.40
2019-03-19T20:57:29.961Z,9.40
2019-03-19T20:59:57.468Z,9.40
2019-03-19T21:02:24.961Z,9.40
2019-03-19T21:04:52.443Z,9.40
2019-03-19T21:07:20.148Z,9.40
2019-03-19T21:09:47.734Z,9.40
2019-03-19T21:12:15.199Z,9.40
2019-03-19T21:14:42.622Z,9.40
2019-03-19T21:17:10.148Z,9.50
2019-03-19T21:19:37.598Z,9.50
2019-03-19T21:22:05.068Z,9.50
2019-03-19T21:24:32.560Z,9.50
2019-03-19T21:27:00.050Z,9.50
2019-03-19T21:29:29.234Z,9.50
2019-03-19T21:31:56.720Z,9.50
2019-03-19T21:34:24.101Z,9.50
2019-03-19T21:36:52.700Z,9.50
2019-03-19T21:39:20.250Z,9.50
2019-03-19T21:41:47.752Z,9.50
2019-03-19T21:44:15.184Z,9.50
2019-03-19T21:46:42.647Z,9.60
2019-03-19T21:49:10.130Z,9.60
2019-03-19T21:51:37.510Z,9.60
2019-03-19T21:54:06.334Z,9.50
2019-03-19T21:56:33.835Z,9.50
2019-03-19T21:59:01.304Z,9.50
2019-03-19T22:01:28.770Z,9.50
2019-03-19T22:04:03.117Z,9.40
2019-03-19T22:06:26.589Z,9.40
2019-03-19T22:08:53.984Z,9.30
2019-03-19T22:11:21.469Z,9.30
2019-03-19T22:13:48.964Z,9.20
2019-03-19T22:16:16.445Z,9.20
2019-03-19T22:18:44.057Z,9.20
2019-03-19T22:21:11.520Z,9.10
2019-03-19T22:23:38.990Z,9.10
2019-03-19T22:26:06.460Z,9.00
2019-03-19T22:28:33.957Z,9.00
2019-03-19T22:31:01.555Z,9.00
2019-03-19T22:33:29.081Z,8.90
2019-03-19T22:35:56.540Z,8.90
2019-03-19T22:38:23.959Z,8.80
2019-03-19T22:40:51.426Z,8.80
2019-03-19T22:43:19.088Z,8.70
2019-03-19T22:45:46.557Z,8.70
2019-03-19T22:48:14.070Z,8.60
2019-03-19T22:50:41.530Z,8.60
2019-03-19T22:53:08.921Z,8.50
2019-03-19T22:55:36.425Z,8.50
2019-03-19T22:58:03.863Z,8.40
2019-03-19T23:00:44.851Z,8.40
2019-03-19T23:03:12.298Z,8.40
2019-03-19T23:05:39.792Z,8.40
2019-03-19T23:08:07.161Z,8.40
2019-03-19T23:10:34.668Z,8.30
2019-03-19T23:13:02.025Z,8.30
2019-03-19T23:15:29.485Z,8.30
2019-03-19T23:17:56.867Z,8.30
2019-03-19T23:20:24.380Z,8.30
2019-03-19T23:22:51.894Z,8.30
2019-03-19T23:25:19.954Z,8.30
2019-03-19T23:27:47.423Z,8.30
2019-03-19T23:30:14.968Z,8.20
2019-03-19T23:32:42.400Z,8.10
2019-03-19T23:35:10.029Z,8.10
2019-03-19T23:37:37.503Z,8.10
2019-03-19T23:40:05.153Z,8.10
2019-03-19T23:42:32.640Z,8.00
2019-03-19T23:45:00.341Z,7.90
2019-03-19T23:47:27.956Z,7.90
2019-03-19T23:49:55.343Z,7.80
2019-03-19T23:52:22.752Z,7.80
2019-03-19T23:54:50.201Z,7.70
2019-03-19T23:57:17.667Z,7.70
2019-03-19T23:59:45.156Z,7.60
